Time;durP1;ratioP1;P1;durP2;ratioP2;P2;SDS_P1;SDS_P2;PMS_P1;PMS_P2;Temp;Humidity;BMP_temperature;BMP_pressure;BME280_temperature;BME280_humidity;BME280_pressure;Samples;Min_cycle;Max_cycle;Signal;HPM_P1;HPM_P2
2023/10/11 00:02:08;;;;;;;4.05;2.33;;;23.60;51.60;;;;;;5039395;28;20421;-61
2023/10/11 00:04:35;;;;;;;5.10;2.53;;;23.60;51.60;;;;;;5021284;28;20355;-61
2023/10/11 00:07:01;;;;;;;4.03;2.50;;;23.60;51.60;;;;;;5041749;28;20053;-61
2023/10/11 00:09:38;;;;;;;3.85;2.67;;;23.60;51.50;;;;;;5039813;28;20033;-61
2023/10/11 00:12:11;;;;;;;4.97;2.53;;;23.60;51.50;;;;;;5037823;28;20034;-60
2023/10/11 00:14:42;;;;;;;3.85;2.67;;;23.60;51.50;;;;;;5039147;28;20037;-60
2023/10/11 00:17:09;;;;;;;3.45;2.47;;;23.60;51.60;;;;;;5036164;28;20041;-61
2023/10/11 00:19:38;;;;;;;4.45;2.50;;;23.60;51.60;;;;;;5040630;28;20052;-60
2023/10/11 00:22:05;;;;;;;6.68;3.08;;;23.60;51.60;;;;;;5042483;28;20107;-62
2023/10/11 00:24:32;;;;;;;4.07;2.75;;;23.60;51.60;;;;;;5043604;28;20036;-61
2023/10/11 00:26:59;;;;;;;4.50;2.80;;;23.60;51.60;;;;;;5024342;28;20056;-60
2023/10/11 00:29:26;;;;;;;4.38;2.80;;;23.60;51.60;;;;;;5037012;28;20090;-61
2023/10/11 00:31:52;;;;;;;5.75;3.17;;;23.60;51.60;;;;;;5017831;28;20100;-60
2023/10/11 00:34:18;;;;;;;3.17;2.20;;;23.60;51.60;;;;;;5038171;28;20188;-61
2023/10/11 00:36:49;;;;;;;5.03;2.90;;;23.60;51.60;;;;;;5010854;28;20025;-59
2023/10/11 00:39:17;;;;;;;4.47;2.80;;;23.60;51.60;;;;;;5042190;28;20071;-61
2023/10/11 00:41:48;;;;;;;5.65;2.55;;;23.60;51.60;;;;;;5026230;28;20033;-61
2023/10/11 00:44:17;;;;;;;5.57;2.95;;;23.60;51.50;;;;;;5025527;28;20032;-60
2023/10/11 00:47:01;;;;;;;5.05;2.50;;;23.60;51.50;;;;;;5039769;28;20025;-60
2023/10/11 00:49:34;;;;;;;2.83;2.25;;;23.60;51.50;;;;;;5042033;28;20044;-61
2023/10/11 00:52:04;;;;;;;3.90;2.60;;;23.60;51.50;;;;;;5038999;28;20113;-62
2023/10/11 00:54:30;;;;;;;3.95;2.22;;;23.60;51.50;;;;;;5042062;28;20037;-60
2023/10/11 00:56:56;;;;;;;3.40;2.58;;;23.50;51.50;;;;;;5043735;28;20108;-63
2023/10/11 00:59:23;;;;;;;3.20;2.30;;;23.50;51.50;;;;;;5043593;28;20139;-62
2023/10/11 01:01:51;;;;;;;4.75;2.60;;;23.60;51.50;;;;;;5021518;28;20080;-61
2023/10/11 01:04:19;;;;;;;3.40;2.50;;;23.50;51.40;;;;;;5024717;28;20090;-62
2023/10/11 01:06:48;;;;;;;4.13;2.30;;;23.50;51.40;;;;;;5036787;28;20033;-60
2023/10/11 01:09:17;;;;;;;4.13;2.33;;;23.50;51.40;;;;;;5028023;28;20115;-60
2023/10/11 01:11:45;;;;;;;3.13;2.35;;;23.60;51.40;;;;;;5036565;28;20033;-61
2023/10/11 01:14:11;;;;;;;3.20;1.98;;;23.50;51.30;;;;;;5034644;28;20029;-61
2023/10/11 01:16:38;;;;;;;4.28;2.72;;;23.50;51.30;;;;;;5041293;28;20396;-60
2023/10/11 01:19:11;;;;;;;3.83;2.53;;;23.50;51.30;;;;;;5044047;28;20033;-60
2023/10/11 01:21:41;;;;;;;3.97;2.47;;;23.50;51.30;;;;;;5041769;28;20104;-61
2023/10/11 01:24:08;;;;;;;5.53;3.03;;;23.50;51.30;;;;;;5023775;28;20029;-61
2023/10/11 01:26:35;;;;;;;3.92;2.53;;;23.50;51.30;;;;;;5034270;28;20029;-61
2023/10/11 01:29:01;;;;;;;4.00;2.83;;;23.50;51.20;;;;;;5025185;28;20028;-60
2023/10/11 01:31:33;;;;;;;3.50;2.85;;;23.50;51.20;;;;;;5036917;28;20037;-60
2023/10/11 01:33:59;;;;;;;4.30;2.30;;;23.50;51.20;;;;;;5022705;28;20032;-60
2023/10/11 01:36:26;;;;;;;4.88;2.92;;;23.50;51.20;;;;;;5017808;28;20025;-60
2023/10/11 01:38:52;;;;;;;4.43;2.50;;;23.50;51.20;;;;;;5019446;28;20037;-60
2023/10/11 01:41:22;;;;;;;4.22;2.25;;;23.50;51.20;;;;;;5045655;28;20036;-62
2023/10/11 01:43:50;;;;;;;4.10;2.63;;;23.50;51.20;;;;;;5023604;28;20121;-60
2023/10/11 01:46:18;;;;;;;3.15;2.22;;;23.50;51.20;;;;;;5028377;28;20029;-61
2023/10/11 01:48:45;;;;;;;4.00;2.53;;;23.50;51.10;;;;;;5021137;28;20079;-60
2023/10/11 01:51:21;;;;;;;3.85;2.53;;;23.50;51.20;;;;;;5020968;28;20124;-60
2023/10/11 01:53:47;;;;;;;4.35;2.78;;;23.50;51.20;;;;;;5021339;28;20037;-61
2023/10/11 01:56:13;;;;;;;3.75;2.47;;;23.50;51.10;;;;;;5035620;28;20393;-60
2023/10/11 01:58:42;;;;;;;4.35;2.20;;;23.40;51.10;;;;;;5021411;28;20060;-61
2023/10/11 02:01:22;;;;;;;3.20;2.40;;;23.40;51.10;;;;;;5023125;28;20352;-61
2023/10/11 02:03:54;;;;;;;3.67;2.42;;;23.40;51.00;;;;;;5019710;28;20072;-60
2023/10/11 02:06:22;;;;;;;3.95;2.53;;;23.40;51.10;;;;;;5035890;28;20048;-60
2023/10/11 02:08:48;;;;;;;4.60;2.60;;;23.40;51.00;;;;;;5023312;28;20033;-61
2023/10/11 02:11:14;;;;;;;5.93;2.60;;;23.40;51.10;;;;;;5038493;28;20039;-61
2023/10/11 02:13:43;;;;;;;3.70;2.42;;;23.40;51.00;;;;;;5039916;28;20036;-61
2023/10/11 02:16:11;;;;;;;3.05;2.33;;;23.40;51.00;;;;;;5027723;28;20029;-62
2023/10/11 02:18:44;;;;;;;4.20;2.53;;;23.40;51.00;;;;;;5048537;28;20065;-60
2023/10/11 02:21:10;;;;;;;3.80;2.72;;;23.40;51.00;;;;;;5049590;28;20456;-61
2023/10/11 02:23:40;;;;;;;3.85;2.42;;;23.40;51.00;;;;;;5054310;28;20110;-60
2023/10/11 02:26:27;;;;;;;4.03;2.30;;;23.40;51.00;;;;;;5054285;28;20025;-61
2023/10/11 02:28:54;;;;;;;3.95;2.20;;;23.40;51.00;;;;;;5036374;28;20029;-60
2023/10/11 02:31:20;;;;;;;3.63;2.60;;;23.40;51.00;;;;;;5053597;28;20024;-61
2023/10/11 02:33:51;;;;;;;3.47;2.30;;;23.40;51.00;;;;;;5036327;28;20436;-60
2023/10/11 02:36:18;;;;;;;4.03;2.20;;;23.40;51.00;;;;;;5053736;28;20048;-60
2023/10/11 02:38:50;;;;;;;4.32;2.40;;;23.40;50.90;;;;;;5054734;28;20033;-61
2023/10/11 02:41:24;;;;;;;4.35;2.80;;;23.40;50.90;;;;;;5053224;28;20025;-61
2023/10/11 02:43:57;;;;;;;3.20;2.17;;;23.30;50.90;;;;;;5036200;28;20451;-60
2023/10/11 02:46:24;;;;;;;4.28;2.30;;;23.40;50.90;;;;;;5021244;28;20056;-61
2023/10/11 02:48:54;;;;;;;4.20;2.80;;;23.40;50.90;;;;;;5016499;28;20033;-61
2023/10/11 02:51:24;;;;;;;3.95;2.40;;;23.30;51.50;;;;;;5038887;28;20033;-60
2023/10/11 02:53:52;;;;;;;4.93;2.45;;;23.40;50.90;;;;;;5036241;28;20456;-61
2023/10/11 02:56:18;;;;;;;3.58;2.45;;;23.40;50.90;;;;;;5053925;28;20029;-60
2023/10/11 02:58:45;;;;;;;4.72;2.50;;;23.40;50.90;;;;;;5053923;28;20071;-61
2023/10/11 03:01:14;;;;;;;4.85;2.35;;;23.40;50.90;;;;;;5045353;28;20114;-60
2023/10/11 03:03:43;;;;;;;5.82;2.95;;;23.40;51.00;;;;;;5036063;28;20179;-60
2023/10/11 03:06:10;;;;;;;4.25;2.10;;;23.30;50.90;;;;;;5036641;28;20033;-61
2023/10/11 03:08:44;;;;;;;2.95;2.45;;;23.30;51.50;;;;;;5019073;28;20030;-61
2023/10/11 03:11:15;;;;;;;4.47;2.65;;;23.30;50.90;;;;;;5041909;28;20039;-60
2023/10/11 03:13:43;;;;;;;3.28;2.47;;;23.30;50.90;;;;;;5037081;28;20025;-60
2023/10/11 03:16:16;;;;;;;4.03;2.55;;;23.30;50.90;;;;;;5040065;28;20037;-60
2023/10/11 03:18:46;;;;;;;3.72;2.65;;;23.30;50.90;;;;;;5053421;28;20040;-61
2023/10/11 03:21:17;;;;;;;3.38;2.25;;;23.30;50.90;;;;;;5044978;28;20047;-60
2023/10/11 03:23:48;;;;;;;3.05;2.10;;;23.30;50.90;;;;;;5057552;28;20111;-60
2023/10/11 03:26:31;;;;;;;2.65;2.00;;;23.30;50.90;;;;;;5057431;28;20024;-60
2023/10/11 03:29:04;;;;;;;3.70;2.60;;;23.30;50.90;;;;;;5057318;28;20063;-60
2023/10/11 03:31:40;;;;;;;6.07;2.78;;;23.30;50.90;;;;;;5048048;28;20167;-60
2023/10/11 03:34:14;;;;;;;6.30;2.60;;;23.30;50.90;;;;;;5056077;28;20048;-61
2023/10/11 03:36:51;;;;;;;3.45;2.42;;;23.30;50.90;;;;;;5039675;28;20452;-61
2023/10/11 03:42:14;;;;;;;4.93;2.85;;;23.30;50.90;;;;;;5050977;28;20056;-61
2023/10/11 03:44:45;;;;;;;3.13;2.08;;;23.30;50.90;;;;;;5049471;28;20029;-61
2023/10/11 03:47:15;;;;;;;3.03;2.33;;;23.30;50.90;;;;;;5057257;28;20064;-60
2023/10/11 03:52:19;;;;;;;2.65;2.10;;;23.30;50.90;;;;;;5055578;28;20044;-61
2023/10/11 03:54:46;;;;;;;3.42;2.08;;;23.20;50.90;;;;;;5056923;28;20057;-61
2023/10/11 03:57:12;;;;;;;3.88;2.30;;;23.30;50.90;;;;;;5057248;28;20340;-61
2023/10/11 03:59:39;;;;;;;3.88;2.60;;;23.30;50.90;;;;;;5056996;28;20039;-60
2023/10/11 04:02:10;;;;;;;3.85;2.45;;;23.30;50.90;;;;;;5055743;28;20059;-62
2023/10/11 04:04:40;;;;;;;3.67;2.20;;;23.30;50.90;;;;;;5045565;28;20102;-60
2023/10/11 04:07:06;;;;;;;3.33;2.30;;;23.20;50.90;;;;;;5053529;28;20025;-59
2023/10/11 04:09:33;;;;;;;3.20;2.38;;;23.20;50.90;;;;;;5052396;28;20116;-59
2023/10/11 04:12:00;;;;;;;5.55;2.65;;;23.20;50.90;;;;;;5034761;28;20056;-59
2023/10/11 04:14:45;;;;;;;3.10;2.30;;;23.20;50.90;;;;;;5056772;28;20033;-61
2023/10/11 04:20:21;;;;;;;4.38;2.60;;;23.20;50.90;;;;;;5055637;28;20044;-57
2023/10/11 04:23:01;;;;;;;3.67;2.25;;;23.20;50.90;;;;;;5052686;28;20071;-62
2023/10/11 04:25:32;;;;;;;4.25;2.38;;;23.20;51.00;;;;;;5056192;28;20067;-61
2023/10/11 04:27:58;;;;;;;4.05;2.38;;;23.20;51.00;;;;;;5056313;28;20051;-60
2023/10/11 04:30:32;;;;;;;3.85;2.28;;;23.20;51.00;;;;;;5054574;28;20025;-59
2023/10/11 04:33:01;;;;;;;3.72;2.47;;;23.20;51.00;;;;;;5054146;28;20055;-59
2023/10/11 04:35:42;;;;;;;3.40;2.25;;;23.20;51.10;;;;;;5038503;28;20511;-61
2023/10/11 04:38:13;;;;;;;4.18;2.92;;;23.20;51.10;;;;;;5036277;28;20063;-60
2023/10/11 04:40:42;;;;;;;4.32;2.60;;;23.20;51.10;;;;;;5039297;28;20086;-60
2023/10/11 04:43:25;;;;;;;4.57;2.60;;;23.20;51.00;;;;;;5056536;28;20072;-60
2023/10/11 04:45:54;;;;;;;3.53;2.47;;;23.20;51.00;;;;;;5055954;28;20144;-60
2023/10/11 04:48:33;;;;;;;3.15;2.17;;;23.20;51.10;;;;;;5056685;28;20029;-60
2023/10/11 04:59:59;;;;;;;3.58;2.40;;;23.20;51.10;;;;;;5055932;28;20052;-61
2023/10/11 05:02:16;;;;;;;2.87;2.30;;;23.20;51.10;;;;;;5027113;28;20397;-62
2023/10/11 05:04:44;;;;;;;3.08;1.90;;;23.20;51.10;;;;;;5017737;28;20383;-60
2023/10/11 05:07:10;;;;;;;3.63;2.15;;;23.10;51.10;;;;;;5050451;28;20040;-60
2023/10/11 05:09:38;;;;;;;3.15;2.30;;;23.10;51.10;;;;;;5054768;28;20025;-60
2023/10/11 05:12:19;;;;;;;4.43;2.15;;;23.10;51.10;;;;;;5047281;28;20364;-60
2023/10/11 05:19:57;;;;;;;3.97;2.55;;;23.10;51.10;;;;;;5054924;28;20448;-61
2023/10/11 05:22:30;;;;;;;3.90;2.75;;;23.10;51.10;;;;;;5054237;28;20112;-60
2023/10/11 05:30:11;;;;;;;3.00;2.15;;;23.10;51.10;;;;;;5055027;28;20115;-60
2023/10/11 05:32:49;;;;;;;3.65;2.20;;;23.10;51.10;;;;;;5054113;28;20037;-60
2023/10/11 05:51:33;;;;;;;3.72;2.45;;;23.10;51.10;;;;;;5034873;28;20033;-60
2023/10/11 05:54:04;;;;;;;2.97;2.25;;;23.10;51.10;;;;;;5034763;28;20120;-60
2023/10/11 05:56:38;;;;;;;3.85;2.40;;;23.10;51.10;;;;;;5034820;28;20353;-60
2023/10/11 05:59:09;;;;;;;2.80;2.03;;;23.10;51.20;;;;;;5043779;28;20033;-60
2023/10/11 06:01:35;;;;;;;3.63;2.30;;;23.00;51.10;;;;;;5054860;28;20033;-62
2023/10/11 06:04:03;;;;;;;5.45;2.38;;;23.10;51.20;;;;;;5054143;28;20025;-60
2023/10/11 06:09:11;;;;;;;3.58;2.30;;;23.10;51.20;;;;;;5049341;28;20028;-61
2023/10/11 06:11:47;;;;;;;4.65;2.55;;;23.00;51.20;;;;;;5036693;28;20108;-61
2023/10/11 06:14:16;;;;;;;4.18;2.63;;;23.10;51.30;;;;;;5053917;28;20354;-60
2023/10/11 06:16:49;;;;;;;4.05;2.55;;;23.10;51.30;;;;;;5052484;28;20099;-60
2023/10/11 06:19:16;;;;;;;2.75;2.22;;;23.00;51.20;;;;;;5044544;28;20132;-60
2023/10/11 06:21:59;;;;;;;3.38;2.25;;;23.10;51.30;;;;;;5050667;28;20056;-61
2023/10/11 06:24:36;;;;;;;4.68;2.20;;;23.10;51.40;;;;;;5054612;28;20048;-63
2023/10/11 06:28:09;;;;;;;4.00;2.70;;;23.10;51.40;;;;;;5035479;28;20030;-60
2023/10/11 06:29:55;;;;;;;4.18;2.60;;;23.10;51.50;;;;;;5037931;28;20036;-60
2023/10/11 06:32:30;;;;;;;3.60;2.88;;;23.10;51.50;;;;;;5052963;28;20048;-60
2023/10/11 06:34:56;;;;;;;3.60;2.58;;;23.10;51.50;;;;;;5053466;28;20045;-61
2023/10/11 06:37:25;;;;;;;3.83;2.53;;;23.10;51.50;;;;;;5046345;28;20024;-63
2023/10/11 06:42:21;;;;;;;6.35;2.90;;;23.00;51.50;;;;;;5049772;28;20037;-61
2023/10/11 06:44:54;;;;;;;4.55;2.88;;;23.00;51.50;;;;;;5051409;28;20035;-62
2023/10/11 06:47:21;;;;;;;5.43;3.30;;;23.10;51.60;;;;;;5053848;28;20048;-60
2023/10/11 06:49:54;;;;;;;3.65;2.75;;;23.10;51.60;;;;;;5056811;28;20021;-62
2023/10/11 06:52:25;;;;;;;4.63;2.72;;;23.10;51.70;;;;;;5057960;28;20056;-63
2023/10/11 06:57:39;;;;;;;5.15;3.03;;;23.10;51.80;;;;;;5056626;28;20043;-56
2023/10/11 07:00:24;;;;;;;5.35;3.00;;;23.10;51.90;;;;;;5042685;28;20086;-65
2023/10/11 07:03:09;;;;;;;4.63;2.47;;;23.10;52.30;;;;;;5041877;28;20036;-61
2023/10/11 07:05:47;;;;;;;3.90;2.47;;;23.10;52.70;;;;;;5053864;28;20440;-60
2023/10/11 07:08:17;;;;;;;4.35;2.78;;;23.10;52.90;;;;;;5042676;28;20041;-62
2023/10/11 07:10:57;;;;;;;5.22;3.10;;;23.10;52.90;;;;;;5047966;28;20025;-61
2023/10/11 07:13:23;;;;;;;4.93;2.58;;;23.10;52.80;;;;;;5042390;28;20039;-60
2023/10/11 07:15:51;;;;;;;6.50;2.78;;;23.10;52.70;;;;;;5048233;28;20097;-62
2023/10/11 07:18:26;;;;;;;4.60;2.67;;;23.20;52.60;;;;;;5051099;28;20043;-62
2023/10/11 07:21:09;;;;;;;3.80;2.70;;;23.20;52.50;;;;;;5057229;28;20044;-62
2023/10/11 07:26:47;;;;;;;4.75;2.83;;;23.20;52.40;;;;;;5057718;28;20029;-60
2023/10/11 07:29:12;;;;;;;5.72;2.70;;;23.20;52.30;;;;;;5052770;28;20410;-61
2023/10/11 07:31:48;;;;;;;4.38;2.50;;;23.20;52.30;;;;;;5057569;28;20040;-63
2023/10/11 07:34:20;;;;;;;4.07;2.53;;;23.20;52.30;;;;;;5053060;28;20111;-60
2023/10/11 07:36:49;;;;;;;5.30;2.88;;;23.20;52.30;;;;;;5040174;28;20030;-61
2023/10/11 07:41:49;;;;;;;5.10;2.75;;;23.10;52.20;;;;;;5037440;28;20029;-61
2023/10/11 07:44:19;;;;;;;4.72;3.05;;;23.20;52.30;;;;;;5037184;28;20519;-61
2023/10/11 07:46:54;;;;;;;4.93;2.75;;;23.20;52.30;;;;;;5036746;28;20063;-61
2023/10/11 07:49:23;;;;;;;5.75;2.67;;;23.10;52.30;;;;;;5045648;28;20021;-60
2023/10/11 07:51:58;;;;;;;5.72;3.00;;;23.20;52.30;;;;;;5046266;28;20080;-62
2023/10/11 07:54:26;;;;;;;5.20;2.90;;;23.20;52.30;;;;;;5024362;28;20029;-60
2023/10/11 07:56:57;;;;;;;4.68;2.95;;;23.20;53.00;;;;;;5046571;28;20124;-59
2023/10/11 07:59:26;;;;;;;6.35;3.05;;;23.20;52.30;;;;;;5049769;28;20131;-57
2023/10/11 08:01:57;;;;;;;4.57;2.80;;;23.20;52.30;;;;;;5057460;28;20318;-61
2023/10/11 08:04:27;;;;;;;4.30;2.70;;;23.20;52.40;;;;;;5056951;28;20086;-60
2023/10/11 08:07:03;;;;;;;5.50;3.00;;;23.20;52.40;;;;;;5034530;28;20937;-60
2023/10/11 08:09:45;;;;;;;5.35;3.22;;;23.20;52.50;;;;;;5050743;28;20037;-61
2023/10/11 08:12:15;;;;;;;4.15;2.67;;;23.20;52.50;;;;;;5049384;28;20025;-62
2023/10/11 08:14:46;;;;;;;4.97;2.75;;;23.20;52.50;;;;;;5046936;28;20057;-63
2023/10/11 08:17:19;;;;;;;5.03;2.85;;;23.20;52.50;;;;;;5046615;28;20057;-62
2023/10/11 08:19:48;;;;;;;3.78;2.53;;;23.20;52.60;;;;;;5044637;28;20102;-60
2023/10/11 08:22:16;;;;;;;7.55;3.75;;;23.20;52.70;;;;;;5050199;28;20333;-61
2023/10/11 08:24:49;;;;;;;4.80;2.80;;;23.20;52.90;;;;;;5030533;28;20032;-61
2023/10/11 08:30:22;;;;;;;4.55;3.08;;;23.20;53.20;;;;;;5047906;28;20029;-60
2023/10/11 08:32:45;;;;;;;3.85;2.85;;;23.20;53.10;;;;;;5049162;28;20055;-62
2023/10/11 08:35:16;;;;;;;4.50;3.15;;;23.20;53.20;;;;;;5016771;28;20042;-62
2023/10/11 08:37:45;;;;;;;6.22;4.07;;;23.30;53.20;;;;;;5001455;28;20038;-62
2023/10/11 08:40:23;;;;;;;7.72;3.80;;;23.20;53.10;;;;;;5006618;28;20370;-65
2023/10/11 08:42:50;;;;;;;6.20;3.35;;;23.30;53.20;;;;;;5003702;28;20461;-60
2023/10/11 08:45:36;;;;;;;6.63;3.50;;;23.30;53.20;;;;;;4995489;28;20038;-62
2023/10/11 08:48:06;;;;;;;7.28;3.60;;;23.30;53.30;;;;;;4995482;28;20096;-60
2023/10/11 08:50:37;;;;;;;5.55;3.55;;;23.30;53.30;;;;;;5005176;28;20455;-61
2023/10/11 08:53:09;;;;;;;4.57;3.28;;;23.30;53.40;;;;;;4998155;28;20033;-61
2023/10/11 08:55:39;;;;;;;4.80;3.33;;;23.30;53.40;;;;;;4996428;28;20045;-63
2023/10/11 08:58:23;;;;;;;6.57;3.85;;;23.30;53.40;;;;;;5014099;28;20519;-62
2023/10/11 09:00:52;;;;;;;5.35;3.90;;;23.30;53.50;;;;;;5014260;28;20034;-61
2023/10/11 09:03:26;;;;;;;6.82;3.95;;;23.30;53.50;;;;;;5016022;28;20033;-61
2023/10/11 09:05:58;;;;;;;4.47;3.50;;;23.30;53.60;;;;;;5015875;28;20057;-60
2023/10/11 09:08:31;;;;;;;5.25;3.97;;;23.30;53.60;;;;;;5002607;28;20093;-61
2023/10/11 09:11:41;;;;;;;5.30;3.63;;;23.30;53.70;;;;;;5004184;28;20038;-62
2023/10/11 09:14:22;;;;;;;5.75;3.38;;;23.30;53.70;;;;;;5004063;28;20104;-63
2023/10/11 09:16:57;;;;;;;6.15;3.67;;;23.30;53.80;;;;;;5008175;28;20029;-61
2023/10/11 09:19:26;;;;;;;5.13;3.72;;;23.30;53.80;;;;;;5006550;28;20049;-60
2023/10/11 09:22:03;;;;;;;5.75;4.13;;;23.30;53.90;;;;;;5010997;28;20026;-59
2023/10/11 09:24:38;;;;;;;5.70;3.97;;;23.20;54.00;;;;;;5006442;28;20049;-60
2023/10/11 09:29:43;;;;;;;5.22;3.63;;;23.30;54.20;;;;;;5001864;28;20045;-60
2023/10/11 09:32:13;;;;;;;7.45;3.92;;;23.20;54.20;;;;;;4997537;28;20026;-64
2023/10/11 09:34:42;;;;;;;6.28;4.10;;;23.30;54.30;;;;;;5014323;28;20139;-60
2023/10/11 09:37:12;;;;;;;6.32;4.18;;;23.30;54.30;;;;;;5024303;28;20118;-60
2023/10/11 09:39:39;;;;;;;6.18;4.30;;;23.30;54.40;;;;;;5029968;28;20033;-58
2023/10/11 09:42:09;;;;;;;6.15;4.30;;;23.20;54.50;;;;;;5019834;28;20044;-58
2023/10/11 09:44:44;;;;;;;6.30;4.45;;;23.20;54.70;;;;;;5034664;28;20120;-63
2023/10/11 09:47:16;;;;;;;6.05;4.28;;;23.30;55.10;;;;;;5034561;28;20037;-59
2023/10/11 09:49:43;;;;;;;7.20;4.40;;;23.30;55.40;;;;;;5026335;28;20030;-62
2023/10/11 09:52:16;;;;;;;6.28;4.65;;;23.30;55.80;;;;;;5023096;28;20120;-58
2023/10/11 09:54:43;;;;;;;5.97;4.28;;;23.30;56.00;;;;;;5025921;28;20032;-58
2023/10/11 09:57:15;;;;;;;6.00;4.22;;;23.40;56.10;;;;;;5023654;28;20342;-63
2023/10/11 10:00:00;;;;;;;6.53;4.32;;;23.40;56.20;;;;;;5026028;28;20068;-60
2023/10/11 10:02:30;;;;;;;7.75;4.53;;;23.40;56.30;;;;;;5024925;28;20057;-59
2023/10/11 10:04:57;;;;;;;8.48;5.13;;;23.40;56.20;;;;;;5029793;28;20076;-60
2023/10/11 10:07:48;;;;;;;6.47;4.90;;;23.50;56.30;;;;;;5024173;28;20067;-58
2023/10/11 10:10:25;;;;;;;7.80;5.22;;;23.50;56.30;;;;;;5024506;28;20037;-59
2023/10/11 10:13:09;;;;;;;6.55;5.22;;;23.50;56.30;;;;;;5028318;28;20026;-59
2023/10/11 10:15:47;;;;;;;7.93;5.10;;;23.60;56.30;;;;;;5028544;28;20107;-59
2023/10/11 10:18:19;;;;;;;9.43;4.93;;;23.60;56.30;;;;;;5025832;28;20026;-62
2023/10/11 10:20:46;;;;;;;6.97;4.47;;;23.60;56.30;;;;;;5026600;28;20330;-61
2023/10/11 10:23:15;;;;;;;6.82;5.03;;;23.60;56.90;;;;;;5026486;28;20053;-58
2023/10/11 10:25:48;;;;;;;7.13;4.88;;;23.70;56.30;;;;;;5027281;28;20026;-58
2023/10/11 10:28:34;;;;;;;6.75;4.88;;;23.70;56.30;;;;;;5023744;28;20060;-62
2023/10/11 10:31:10;;;;;;;9.93;4.80;;;23.70;56.30;;;;;;5026080;28;20036;-55
2023/10/11 10:33:40;;;;;;;10.80;5.30;;;23.70;56.20;;;;;;5024477;28;20033;-61
2023/10/11 10:36:18;;;;;;;8.77;4.85;;;23.70;56.20;;;;;;5040827;28;20059;-60
2023/10/11 10:39:00;;;;;;;7.97;4.88;;;23.70;56.30;;;;;;5019490;28;20053;-61
2023/10/11 10:41:33;;;;;;;7.53;5.53;;;23.70;56.30;;;;;;5044982;28;20091;-61
2023/10/11 10:44:17;;;;;;;7.47;5.40;;;23.80;56.30;;;;;;5022364;28;20033;-60
2023/10/11 10:46:52;;;;;;;7.07;5.18;;;23.70;56.30;;;;;;5042061;28;20020;-60
2023/10/11 10:49:37;;;;;;;6.18;4.78;;;23.70;56.30;;;;;;5046471;28;20040;-61
2023/10/11 10:52:17;;;;;;;7.90;4.97;;;23.70;56.30;;;;;;5041920;28;20036;-61
2023/10/11 10:55:02;;;;;;;6.57;5.03;;;23.70;56.30;;;;;;5042189;28;20074;-61
2023/10/11 10:57:32;;;;;;;7.95;4.88;;;23.70;56.30;;;;;;5043925;28;20041;-63
2023/10/11 11:00:05;;;;;;;6.32;4.93;;;23.70;56.40;;;;;;5040924;28;20049;-61
2023/10/11 11:02:35;;;;;;;7.13;4.85;;;23.60;56.40;;;;;;5041834;28;20025;-60
2023/10/11 11:05:03;;;;;;;6.53;4.80;;;23.60;56.40;;;;;;5042728;28;20029;-61
2023/10/11 11:07:32;;;;;;;6.97;4.50;;;23.60;56.40;;;;;;5039361;28;20024;-60
2023/10/11 11:09:58;;;;;;;7.30;5.53;;;23.60;56.50;;;;;;5040967;28;20029;-61
2023/10/11 11:12:28;;;;;;;7.35;4.88;;;23.60;56.50;;;;;;5045944;28;20941;-61
2023/10/11 11:14:55;;;;;;;6.55;4.85;;;23.60;56.50;;;;;;5041570;28;20029;-61
2023/10/11 11:17:26;;;;;;;6.88;5.03;;;23.60;56.50;;;;;;5039276;28;20523;-60
2023/10/11 11:20:42;;;;;;;6.60;4.97;;;23.60;56.60;;;;;;5042686;28;20537;-61
2023/10/11 11:23:00;;;;;;;5.45;4.47;;;23.60;56.60;;;;;;5037314;28;20048;-59
2023/10/11 11:28:25;;;;;;;6.13;4.63;;;23.60;56.70;;;;;;5042149;28;20095;-61
2023/10/11 11:30:51;;;;;;;6.43;4.38;;;23.60;56.70;;;;;;5008086;28;20044;-60
2023/10/11 11:33:35;;;;;;;7.85;5.18;;;23.60;56.80;;;;;;5043008;28;20021;-54
2023/10/11 11:36:11;;;;;;;9.50;4.88;;;23.60;56.80;;;;;;5026714;28;20049;-60
2023/10/11 11:38:48;;;;;;;6.50;4.90;;;23.50;56.80;;;;;;5055033;28;20076;-60
2023/10/11 11:41:16;;;;;;;6.20;3.75;;;23.60;56.80;;;;;;5057510;28;20102;-61
2023/10/11 11:43:46;;;;;;;7.90;4.40;;;23.50;56.80;;;;;;5037744;28;20028;-60
2023/10/11 11:46:15;;;;;;;6.47;4.82;;;23.50;56.90;;;;;;5041875;28;20026;-60
2023/10/11 11:48:42;;;;;;;6.60;4.22;;;23.50;56.80;;;;;;5037154;28;20036;-61
2023/10/11 11:51:15;;;;;;;5.93;4.22;;;23.60;56.90;;;;;;5037390;28;20107;-60
2023/10/11 11:53:44;;;;;;;5.32;4.03;;;23.50;56.90;;;;;;5020625;28;20040;-60
2023/10/11 11:56:11;;;;;;;5.53;4.10;;;23.50;56.90;;;;;;5054596;28;20029;-62
2023/10/11 11:58:45;;;;;;;5.60;4.13;;;23.50;56.90;;;;;;5054611;28;20120;-61
2023/10/11 12:01:19;;;;;;;7.22;4.40;;;23.50;56.90;;;;;;5054019;28;20047;-60
2023/10/11 12:03:54;;;;;;;5.57;3.78;;;23.50;57.00;;;;;;5055229;28;20037;-61
2023/10/11 12:06:24;;;;;;;5.63;3.95;;;23.60;57.00;;;;;;5056469;28;20064;-60
2023/10/11 12:09:02;;;;;;;6.22;4.43;;;23.50;57.00;;;;;;5053784;28;20039;-61
2023/10/11 12:11:29;;;;;;;5.45;3.88;;;23.60;57.10;;;;;;5056619;28;20056;-61
2023/10/11 12:14:00;;;;;;;5.45;3.80;;;23.60;57.10;;;;;;5056454;28;20103;-61
2023/10/11 12:16:28;;;;;;;5.75;4.00;;;23.60;57.10;;;;;;5055767;28;20040;-61
2023/10/11 12:18:58;;;;;;;7.22;4.20;;;23.60;57.10;;;;;;5019039;28;20033;-61
2023/10/11 12:21:25;;;;;;;5.75;3.45;;;23.60;57.10;;;;;;5053049;28;20452;-61
2023/10/11 12:23:51;;;;;;;5.03;3.80;;;23.60;57.20;;;;;;5056218;28;20033;-61
2023/10/11 12:26:17;;;;;;;5.35;3.25;;;23.60;57.20;;;;;;5038551;28;20025;-61
2023/10/11 12:28:49;;;;;;;5.85;3.85;;;23.60;57.20;;;;;;5056048;28;20116;-61
2023/10/11 12:31:18;;;;;;;5.90;4.15;;;23.50;57.20;;;;;;5056497;28;20459;-61
2023/10/11 12:33:44;;;;;;;5.20;3.58;;;23.60;57.20;;;;;;5056416;28;20035;-61
2023/10/11 12:36:11;;;;;;;4.43;3.40;;;23.50;57.20;;;;;;5055253;28;20061;-61
2023/10/11 12:38:38;;;;;;;5.35;3.42;;;23.50;57.20;;;;;;5055638;28;20100;-61
2023/10/11 12:41:04;;;;;;;6.05;3.92;;;23.60;57.20;;;;;;5055877;28;20143;-61
2023/10/11 12:43:32;;;;;;;5.28;3.53;;;23.60;57.30;;;;;;5055946;28;20033;-62
2023/10/11 12:46:01;;;;;;;5.38;3.75;;;23.60;57.30;;;;;;5038487;28;20314;-60
2023/10/11 12:48:27;;;;;;;4.57;3.50;;;23.60;57.40;;;;;;5055640;28;20053;-59
2023/10/11 12:50:57;;;;;;;4.35;3.40;;;23.60;57.30;;;;;;5054380;28;20028;-60
2023/10/11 12:53:28;;;;;;;5.43;3.80;;;23.60;57.40;;;;;;5055236;28;20017;-59
2023/10/11 12:55:54;;;;;;;4.78;3.38;;;23.50;57.30;;;;;;5055726;28;20071;-60
2023/10/11 12:58:27;;;;;;;5.00;3.10;;;23.60;57.40;;;;;;5049126;28;20064;-61
2023/10/11 13:01:05;;;;;;;5.30;3.22;;;23.50;57.40;;;;;;5052362;28;20037;-62
2023/10/11 13:03:37;;;;;;;5.72;3.50;;;23.60;57.50;;;;;;5050723;28;20055;-60
2023/10/11 13:06:04;;;;;;;6.65;3.40;;;23.50;57.40;;;;;;5050789;28;20039;-61
2023/10/11 13:08:33;;;;;;;5.30;3.63;;;23.50;57.50;;;;;;5041171;28;20331;-60
2023/10/11 13:11:00;;;;;;;5.95;3.20;;;23.50;57.50;;;;;;5052511;28;20025;-60
2023/10/11 13:13:29;;;;;;;9.05;4.00;;;23.60;57.50;;;;;;5046989;28;20337;-62
2023/10/11 13:15:59;;;;;;;5.53;3.40;;;23.50;57.60;;;;;;5048711;28;20029;-60
2023/10/11 13:18:29;;;;;;;5.47;3.50;;;23.50;57.60;;;;;;5045920;28;20029;-60
2023/10/11 13:20:55;;;;;;;6.55;3.65;;;23.50;57.60;;;;;;5035953;28;20053;-60
2023/10/11 13:23:32;;;;;;;5.15;3.63;;;23.50;57.70;;;;;;5031042;28;20040;-59
2023/10/11 13:26:08;;;;;;;5.35;3.70;;;23.60;57.80;;;;;;5039233;28;20045;-60
2023/10/11 13:28:37;;;;;;;6.35;3.47;;;23.50;57.70;;;;;;5044976;28;20064;-60
2023/10/11 13:31:04;;;;;;;6.45;4.10;;;23.50;57.70;;;;;;5024601;28;20079;-59
2023/10/11 13:33:34;;;;;;;5.00;3.50;;;23.50;57.80;;;;;;5026713;28;20029;-58
2023/10/11 13:36:01;;;;;;;6.57;4.38;;;23.50;57.90;;;;;;5051843;28;20052;-57
2023/10/11 13:38:30;;;;;;;7.78;4.05;;;23.60;58.00;;;;;;5054991;28;20048;-59
2023/10/11 13:40:58;;;;;;;5.88;4.15;;;23.50;58.00;;;;;;5033390;28;20321;-59
2023/10/11 13:43:24;;;;;;;7.07;4.00;;;23.50;58.00;;;;;;5041063;28;20052;-59
2023/10/11 13:46:01;;;;;;;7.32;4.47;;;23.60;58.00;;;;;;5048992;28;20094;-58
2023/10/11 13:48:39;;;;;;;5.57;4.00;;;23.60;58.00;;;;;;5035117;28;20452;-58
2023/10/11 13:51:07;;;;;;;6.97;4.38;;;23.60;58.00;;;;;;5039433;28;20037;-59
2023/10/11 13:53:41;;;;;;;5.35;4.43;;;23.60;58.00;;;;;;5028543;28;20124;-57
2023/10/11 13:56:24;;;;;;;5.80;4.28;;;23.60;58.00;;;;;;5032436;28;20048;-58
2023/10/11 13:58:52;;;;;;;5.90;4.57;;;23.60;58.00;;;;;;5044791;28;20475;-58
2023/10/11 14:04:13;;;;;;;6.75;5.15;;;23.50;58.00;;;;;;5040886;28;20025;-58
2023/10/11 14:06:43;;;;;;;7.68;4.60;;;23.60;58.00;;;;;;5018815;28;20025;-59
2023/10/11 14:09:16;;;;;;;6.07;4.57;;;23.60;58.00;;;;;;5046433;28;20044;-59
2023/10/11 14:11:48;;;;;;;6.40;4.72;;;23.50;58.00;;;;;;5036653;28;20041;-59
2023/10/11 14:14:22;;;;;;;6.35;4.78;;;23.50;58.00;;;;;;5036319;28;20016;-58
2023/10/11 14:16:49;;;;;;;6.93;4.50;;;23.60;58.10;;;;;;5046201;28;20047;-58
2023/10/11 14:19:16;;;;;;;5.95;4.53;;;23.60;58.10;;;;;;5048764;28;20156;-58